Time;durP1;ratioP1;P1;durP2;ratioP2;P2;SDS_P1;SDS_P2;PMS_P1;PMS_P2;Temp;Humidity;BMP_temperature;BMP_pressure;BME280_temperature;BME280_humidity;BME280_pressure;Samples;Min_cycle;Max_cycle;Signal;HPM_P1;HPM_P2
2023/12/13 00:00:27;;;;;;;0.22;0.22;;;;;;;;;;5002560;28;20136;-75
2023/12/13 00:02:54;;;;;;;31.05;4.22;;;;;;;;;;5006831;28;20077;-75
2023/12/13 00:05:22;;;;;;;1.70;1.60;;;;;;;;;;4989605;28;20283;-75
2023/12/13 00:07:49;;;;;;;1.65;1.55;;;;;;;;;;5007941;28;20058;-75
2023/12/13 00:10:17;;;;;;;1.95;1.85;;;;;;;;;;5008195;28;20046;-75
2023/12/13 00:12:44;;;;;;;3.13;2.38;;;;;;;;;;4990149;28;20137;-75
2023/12/13 00:15:12;;;;;;;0.00;0.00;;;;;;;;;;5006844;28;20045;-75
2023/12/13 00:17:39;;;;;;;0.10;0.10;;;;;;;;;;5008268;28;20504;-75
2023/12/13 00:20:07;;;;;;;0.32;0.32;;;;;;;;;;5005932;28;20068;-75
2023/12/13 00:22:34;;;;;;;1.20;1.10;;;;;;;;;;5004980;28;20060;-75
2023/12/13 00:25:02;;;;;;;0.25;0.25;;;;;;;;;;5006328;28;20481;-76
2023/12/13 00:27:29;;;;;;;0.28;0.28;;;;;;;;;;5006679;28;20042;-75
2023/12/13 00:29:57;;;;;;;0.10;0.10;;;;;;;;;;5007271;28;20050;-74
2023/12/13 00:32:25;;;;;;;0.08;0.08;;;;;;;;;;5005198;28;20104;-75
2023/12/13 00:34:53;;;;;;;0.30;0.30;;;;;;;;;;5006504;28;20052;-74
2023/12/13 00:37:21;;;;;;;7.13;2.75;;;;;;;;;;5002908;28;20206;-75
2023/12/13 00:39:50;;;;;;;0.70;0.70;;;;;;;;;;5004085;28;20096;-74
2023/12/13 00:42:18;;;;;;;0.63;0.63;;;;;;;;;;5003993;28;20104;-75
2023/12/13 00:44:45;;;;;;;1.90;1.80;;;;;;;;;;5006127;28;20096;-75
2023/12/13 00:47:13;;;;;;;0.22;0.22;;;;;;;;;;4987360;28;20137;-75
2023/12/13 00:49:41;;;;;;;4.13;3.10;;;;;;;;;;5000439;28;20052;-76
2023/12/13 00:52:08;;;;;;;0.43;0.43;;;;;;;;;;5002719;28;20073;-79
2023/12/13 00:54:36;;;;;;;0.40;0.40;;;;;;;;;;5000520;28;20129;-78
2023/12/13 00:57:06;;;;;;;0.40;0.40;;;;;;;;;;4999966;28;20586;-78
2023/12/13 00:59:34;;;;;;;3.10;2.90;;;;;;;;;;5003966;28;20084;-78
2023/12/13 01:02:03;;;;;;;2.38;2.13;;;;;;;;;;4998924;28;21812;-79
2023/12/13 01:04:33;;;;;;;0.25;0.25;;;;;;;;;;5001159;28;20046;-79
2023/12/13 01:07:01;;;;;;;2.03;1.92;;;;;;;;;;5003026;28;20088;-80
2023/12/13 01:09:29;;;;;;;0.47;0.47;;;;;;;;;;4986816;28;20053;-79
2023/12/13 01:11:56;;;;;;;0.63;0.63;;;;;;;;;;5002776;28;20034;-79
2023/12/13 01:14:24;;;;;;;1.05;1.05;;;;;;;;;;5002906;28;20058;-80
2023/12/13 01:16:51;;;;;;;1.23;1.10;;;;;;;;;;5004409;28;20046;-79
2023/12/13 01:19:19;;;;;;;1.17;1.15;;;;;;;;;;4986280;28;20050;-79
2023/12/13 01:21:47;;;;;;;0.35;0.35;;;;;;;;;;5007526;28;20455;-78
2023/12/13 01:24:14;;;;;;;0.10;0.10;;;;;;;;;;5005366;28;20308;-80
2023/12/13 01:26:42;;;;;;;0.77;0.77;;;;;;;;;;5004843;28;20191;-78
2023/12/13 01:29:09;;;;;;;0.10;0.10;;;;;;;;;;5005336;28;20046;-78
2023/12/13 01:31:37;;;;;;;0.00;0.00;;;;;;;;;;5008009;28;20046;-78
2023/12/13 01:34:06;;;;;;;2.40;2.10;;;;;;;;;;4973500;28;20056;-78
2023/12/13 01:36:40;;;;;;;0.10;0.10;;;;;;;;;;5006469;28;20052;-78
2023/12/13 01:39:07;;;;;;;0.30;0.30;;;;;;;;;;5007707;28;20516;-78
2023/12/13 01:41:37;;;;;;;0.10;0.10;;;;;;;;;;5005719;28;20096;-77
2023/12/13 01:44:05;;;;;;;0.32;0.32;;;;;;;;;;4984055;28;20050;-79
2023/12/13 01:46:33;;;;;;;0.10;0.10;;;;;;;;;;5002194;28;20061;-78
2023/12/13 01:49:01;;;;;;;0.35;0.35;;;;;;;;;;5005492;28;20050;-78
2023/12/13 01:51:30;;;;;;;2.25;2.05;;;;;;;;;;5010766;28;20045;-78
2023/12/13 01:53:57;;;;;;;0.65;0.65;;;;;;;;;;5001839;28;20057;-78
2023/12/13 01:56:24;;;;;;;0.05;0.05;;;;;;;;;;5004396;28;20463;-78
2023/12/13 01:58:52;;;;;;;0.63;0.63;;;;;;;;;;4986691;28;20447;-77
2023/12/13 02:01:20;;;;;;;0.80;0.80;;;;;;;;;;5002283;28;20042;-76
2023/12/13 02:03:47;;;;;;;0.77;0.75;;;;;;;;;;5000605;28;20050;-76
2023/12/13 02:06:15;;;;;;;0.98;0.98;;;;;;;;;;5005071;28;22284;-76
2023/12/13 02:08:43;;;;;;;0.15;0.15;;;;;;;;;;5004861;28;20042;-76
2023/12/13 02:11:11;;;;;;;0.10;0.10;;;;;;;;;;5004567;28;20042;-76
2023/12/13 02:13:39;;;;;;;0.20;0.20;;;;;;;;;;4982005;28;20053;-76
2023/12/13 02:16:07;;;;;;;0.22;0.22;;;;;;;;;;4998331;28;20124;-77
2023/12/13 02:18:34;;;;;;;0.10;0.10;;;;;;;;;;4996672;28;20052;-76
2023/12/13 02:21:02;;;;;;;0.28;0.28;;;;;;;;;;5004080;28;20605;-76
2023/12/13 02:23:30;;;;;;;0.10;0.10;;;;;;;;;;5002400;28;20049;-75
2023/12/13 02:25:59;;;;;;;0.15;0.15;;;;;;;;;;5004011;28;20443;-74
2023/12/13 02:28:28;;;;;;;0.10;0.10;;;;;;;;;;4983286;28;20042;-74
2023/12/13 02:30:56;;;;;;;0.55;0.55;;;;;;;;;;5005893;28;20053;-74
2023/12/13 02:33:24;;;;;;;0.28;0.28;;;;;;;;;;4984603;28;20057;-75
2023/12/13 02:35:52;;;;;;;0.40;0.40;;;;;;;;;;5003513;28;20049;-74
2023/12/13 02:38:20;;;;;;;0.05;0.05;;;;;;;;;;5001920;28;20522;-74
2023/12/13 02:40:48;;;;;;;0.03;0.03;;;;;;;;;;5004590;28;20038;-74
2023/12/13 02:43:16;;;;;;;0.10;0.10;;;;;;;;;;5003179;28;20054;-74
2023/12/13 02:45:43;;;;;;;0.47;0.47;;;;;;;;;;4989884;28;20328;-74
2023/12/13 02:48:11;;;;;;;0.00;0.00;;;;;;;;;;4985788;28;20054;-74
2023/12/13 02:50:39;;;;;;;0.10;0.10;;;;;;;;;;5003018;28;20049;-74
2023/12/13 02:53:07;;;;;;;0.70;0.70;;;;;;;;;;4982081;28;20050;-74
2023/12/13 02:55:34;;;;;;;0.10;0.10;;;;;;;;;;5002834;28;20049;-74
2023/12/13 02:58:02;;;;;;;0.80;0.63;;;;;;;;;;5004731;28;20659;-73
2023/12/13 03:00:30;;;;;;;0.63;0.63;;;;;;;;;;5004334;28;20050;-73
2023/12/13 03:02:57;;;;;;;0.10;0.10;;;;;;;;;;5004256;28;20148;-74
2023/12/13 03:05:25;;;;;;;0.70;0.70;;;;;;;;;;5003121;28;20068;-74
2023/12/13 03:07:52;;;;;;;0.10;0.10;;;;;;;;;;5004829;28;20294;-74
2023/12/13 03:10:20;;;;;;;0.10;0.10;;;;;;;;;;5003042;28;20050;-73
2023/12/13 03:12:48;;;;;;;1.02;1.00;;;;;;;;;;4999697;28;20081;-74
2023/12/13 03:15:15;;;;;;;0.75;0.75;;;;;;;;;;5001194;28;20338;-73
2023/12/13 03:17:44;;;;;;;0.28;0.28;;;;;;;;;;5000621;28;21550;-74
2023/12/13 03:20:12;;;;;;;0.20;0.20;;;;;;;;;;5000993;28;20038;-74
2023/12/13 03:22:39;;;;;;;0.10;0.10;;;;;;;;;;5003464;28;20053;-74
2023/12/13 03:25:07;;;;;;;0.22;0.22;;;;;;;;;;5002503;28;20376;-74
2023/12/13 03:27:35;;;;;;;1.75;1.65;;;;;;;;;;5001125;28;20053;-73
2023/12/13 03:30:04;;;;;;;0.55;0.55;;;;;;;;;;5004074;28;20160;-74
2023/12/13 03:32:31;;;;;;;0.80;0.80;;;;;;;;;;5005663;28;20081;-74
2023/12/13 03:34:59;;;;;;;0.82;0.82;;;;;;;;;;5004544;28;20041;-74
2023/12/13 03:37:28;;;;;;;0.50;0.50;;;;;;;;;;5005438;28;20059;-74
2023/12/13 03:39:56;;;;;;;0.10;0.10;;;;;;;;;;4986110;28;20500;-74
2023/12/13 03:42:27;;;;;;;0.77;0.77;;;;;;;;;;4970657;28;20045;-74
2023/12/13 03:44:56;;;;;;;0.43;0.43;;;;;;;;;;5007293;28;20499;-74
2023/12/13 03:47:23;;;;;;;0.30;0.25;;;;;;;;;;5007675;28;20065;-74
2023/12/13 03:49:51;;;;;;;0.10;0.10;;;;;;;;;;5007210;28;20058;-74
2023/12/13 03:52:18;;;;;;;0.17;0.17;;;;;;;;;;4989080;28;20420;-74
2023/12/13 03:54:46;;;;;;;0.43;0.43;;;;;;;;;;5005566;28;20077;-74
2023/12/13 03:57:13;;;;;;;0.10;0.10;;;;;;;;;;5006273;28;20044;-74
2023/12/13 03:59:41;;;;;;;0.20;0.20;;;;;;;;;;5004912;28;20050;-74
2023/12/13 04:02:08;;;;;;;1.17;0.75;;;;;;;;;;5007155;28;20050;-74
2023/12/13 04:04:37;;;;;;;1.10;1.10;;;;;;;;;;5004033;28;20049;-74
2023/12/13 04:07:06;;;;;;;0.20;0.20;;;;;;;;;;5006316;28;20136;-74
2023/12/13 04:09:34;;;;;;;0.82;0.70;;;;;;;;;;5007208;28;20397;-74
2023/12/13 04:12:02;;;;;;;1.20;1.05;;;;;;;;;;5006003;28;20144;-74
2023/12/13 04:14:30;;;;;;;1.13;1.13;;;;;;;;;;5007059;28;20046;-74
2023/12/13 04:16:58;;;;;;;3.17;1.58;;;;;;;;;;4990276;28;20045;-75
2023/12/13 04:19:25;;;;;;;0.10;0.10;;;;;;;;;;5006907;28;20575;-75
2023/12/13 04:21:53;;;;;;;0.65;0.65;;;;;;;;;;4985514;28;20175;-75
2023/12/13 04:24:20;;;;;;;0.80;0.80;;;;;;;;;;4983916;28;20201;-75
2023/12/13 04:26:50;;;;;;;0.30;0.30;;;;;;;;;;5001445;28;20037;-74
2023/12/13 04:29:18;;;;;;;5.60;2.70;;;;;;;;;;4998639;28;20128;-72
2023/12/13 04:31:45;;;;;;;0.43;0.43;;;;;;;;;;5003102;28;20491;-75
2023/12/13 04:34:13;;;;;;;1.40;0.63;;;;;;;;;;4981967;28;20073;-75
2023/12/13 04:36:41;;;;;;;0.43;0.43;;;;;;;;;;4980102;28;20165;-75
2023/12/13 04:39:08;;;;;;;0.65;0.65;;;;;;;;;;5001599;28;20103;-75
2023/12/13 04:41:38;;;;;;;0.30;0.30;;;;;;;;;;5003691;28;20053;-75
2023/12/13 04:44:08;;;;;;;0.10;0.10;;;;;;;;;;5001603;28;20042;-75
2023/12/13 04:46:35;;;;;;;0.10;0.10;;;;;;;;;;5004060;28;20050;-75
2023/12/13 04:49:03;;;;;;;0.43;0.43;;;;;;;;;;5003272;28;20046;-75
2023/12/13 04:51:30;;;;;;;0.13;0.13;;;;;;;;;;5003578;28;20072;-75
2023/12/13 04:53:58;;;;;;;0.10;0.10;;;;;;;;;;5002968;28;20052;-75
2023/12/13 04:56:26;;;;;;;0.88;0.88;;;;;;;;;;5005203;28;20084;-75
2023/12/13 04:58:53;;;;;;;0.20;0.20;;;;;;;;;;5002184;28;20451;-75
2023/12/13 05:01:21;;;;;;;0.65;0.57;;;;;;;;;;4985910;28;20053;-75
2023/12/13 05:03:49;;;;;;;0.43;0.43;;;;;;;;;;4984394;28;20046;-75
2023/12/13 05:06:16;;;;;;;0.20;0.20;;;;;;;;;;5002907;28;20054;-75
2023/12/13 05:08:44;;;;;;;0.80;0.80;;;;;;;;;;5003385;28;20555;-75
2023/12/13 05:11:11;;;;;;;0.10;0.10;;;;;;;;;;4986498;28;20534;-75
2023/12/13 05:13:39;;;;;;;0.50;0.50;;;;;;;;;;4987039;28;21169;-75
2023/12/13 05:16:07;;;;;;;0.20;0.20;;;;;;;;;;5004437;28;20136;-75
2023/12/13 05:18:34;;;;;;;0.20;0.20;;;;;;;;;;5005819;28;20423;-75
2023/12/13 05:21:02;;;;;;;0.47;0.47;;;;;;;;;;5005769;28;20054;-75
2023/12/13 05:23:30;;;;;;;0.90;0.90;;;;;;;;;;5003643;28;20046;-75
2023/12/13 05:25:58;;;;;;;0.98;0.50;;;;;;;;;;5003934;28;20412;-75
2023/12/13 05:28:25;;;;;;;0.60;0.47;;;;;;;;;;5004740;28;20049;-75
2023/12/13 05:30:53;;;;;;;0.32;0.32;;;;;;;;;;4996649;28;20046;-75
2023/12/13 05:33:21;;;;;;;0.95;0.82;;;;;;;;;;5001539;28;20056;-76
2023/12/13 05:35:48;;;;;;;0.10;0.10;;;;;;;;;;5004367;28;20052;-75
2023/12/13 05:38:16;;;;;;;0.32;0.32;;;;;;;;;;5000655;28;20046;-75
2023/12/13 05:40:44;;;;;;;0.70;0.70;;;;;;;;;;4998804;28;20042;-75
2023/12/13 05:43:12;;;;;;;2.88;0.82;;;;;;;;;;5004174;28;20041;-75
2023/12/13 05:45:39;;;;;;;0.65;0.65;;;;;;;;;;4993172;28;20056;-75
2023/12/13 05:48:07;;;;;;;0.13;0.13;;;;;;;;;;5003314;28;20133;-76
2023/12/13 05:50:34;;;;;;;0.73;0.73;;;;;;;;;;5002851;28;20085;-75
2023/12/13 05:53:02;;;;;;;0.30;0.30;;;;;;;;;;5003474;28;20545;-75
2023/12/13 05:55:29;;;;;;;0.75;0.75;;;;;;;;;;5004273;28;20073;-75
2023/12/13 05:57:56;;;;;;;0.98;0.90;;;;;;;;;;4984093;28;20050;-75
2023/12/13 06:00:24;;;;;;;0.38;0.38;;;;;;;;;;5001474;28;20046;-74
2023/12/13 06:02:52;;;;;;;0.65;0.60;;;;;;;;;;5002566;28;20046;-75
2023/12/13 06:05:23;;;;;;;3.00;2.60;;;;;;;;;;4998950;28;20058;-76
2023/12/13 06:07:52;;;;;;;0.88;0.75;;;;;;;;;;5001380;28;20054;-75
2023/12/13 06:10:19;;;;;;;0.73;0.73;;;;;;;;;;4996108;28;20686;-76
2023/12/13 06:12:50;;;;;;;2.33;1.25;;;;;;;;;;4995526;28;20104;-75
2023/12/13 06:15:19;;;;;;;0.85;0.82;;;;;;;;;;4997252;28;20104;-75
2023/12/13 06:17:46;;;;;;;2.45;1.85;;;;;;;;;;4995172;28;20728;-75
2023/12/13 06:20:14;;;;;;;1.83;1.70;;;;;;;;;;5006942;28;20400;-75
2023/12/13 06:22:42;;;;;;;2.35;2.05;;;;;;;;;;5003296;28;20051;-75
2023/12/13 06:25:10;;;;;;;0.43;0.43;;;;;;;;;;4995994;28;20127;-76
2023/12/13 06:27:37;;;;;;;2.63;2.40;;;;;;;;;;5005249;28;20837;-75
2023/12/13 06:30:05;;;;;;;0.45;0.45;;;;;;;;;;5001912;28;20050;-76
2023/12/13 06:32:33;;;;;;;3.38;3.17;;;;;;;;;;5007260;28;20053;-76
2023/12/13 06:35:00;;;;;;;2.40;2.13;;;;;;;;;;5002656;28;20064;-75
2023/12/13 06:37:29;;;;;;;0.50;0.50;;;;;;;;;;5005814;28;20045;-75
2023/12/13 06:39:57;;;;;;;0.50;0.50;;;;;;;;;;5005234;28;20034;-75
2023/12/13 06:42:24;;;;;;;0.10;0.10;;;;;;;;;;5007507;28;20100;-78
2023/12/13 06:44:52;;;;;;;1.60;1.05;;;;;;;;;;5005546;28;20155;-78
2023/12/13 06:47:20;;;;;;;0.38;0.38;;;;;;;;;;4994726;28;20050;-80
2023/12/13 06:49:48;;;;;;;0.93;0.93;;;;;;;;;;5000979;28;20132;-79
2023/12/13 06:52:15;;;;;;;0.80;0.80;;;;;;;;;;4998996;28;20057;-77
2023/12/13 06:54:43;;;;;;;1.17;1.17;;;;;;;;;;5003413;28;20056;-80
2023/12/13 06:57:10;;;;;;;1.13;0.85;;;;;;;;;;5004917;28;20034;-79
2023/12/13 06:59:38;;;;;;;3.97;3.63;;;;;;;;;;4996382;28;20050;-76
2023/12/13 07:02:06;;;;;;;2.40;2.15;;;;;;;;;;4964525;28;20057;-77
2023/12/13 07:04:35;;;;;;;0.15;0.15;;;;;;;;;;5002907;28;20056;-77
2023/12/13 07:07:03;;;;;;;1.48;1.38;;;;;;;;;;5006597;28;20045;-77
2023/12/13 07:09:31;;;;;;;0.43;0.43;;;;;;;;;;4987103;28;20419;-80
2023/12/13 07:11:59;;;;;;;1.13;1.02;;;;;;;;;;5002038;28;20088;-77
2023/12/13 07:14:26;;;;;;;3.75;2.83;;;;;;;;;;5003891;28;20050;-78
2023/12/13 07:16:54;;;;;;;1.67;0.82;;;;;;;;;;4987438;28;20484;-77
2023/12/13 07:19:22;;;;;;;0.82;0.82;;;;;;;;;;4995238;28;20072;-77
2023/12/13 07:21:49;;;;;;;1.27;1.20;;;;;;;;;;5003709;28;20052;-80
2023/12/13 07:24:17;;;;;;;0.28;0.28;;;;;;;;;;5002231;28;20540;-79
2023/12/13 07:26:46;;;;;;;1.33;0.70;;;;;;;;;;4980944;28;20060;-81
2023/12/13 07:29:14;;;;;;;5.68;1.35;;;;;;;;;;4967520;28;20045;-78
2023/12/13 07:31:41;;;;;;;1.02;1.02;;;;;;;;;;5005633;28;20074;-82
2023/12/13 07:34:09;;;;;;;1.27;1.17;;;;;;;;;;4990792;28;20088;-77
2023/12/13 07:36:37;;;;;;;0.63;0.63;;;;;;;;;;5003328;28;20046;-77
2023/12/13 07:39:05;;;;;;;1.27;0.80;;;;;;;;;;5001713;28;20551;-77
2023/12/13 07:41:32;;;;;;;0.75;0.75;;;;;;;;;;4983196;28;20082;-77
2023/12/13 07:44:00;;;;;;;1.00;1.00;;;;;;;;;;5001664;28;20060;-80
2023/12/13 07:46:27;;;;;;;3.50;1.77;;;;;;;;;;5003821;28;20425;-77
2023/12/13 07:48:57;;;;;;;3.35;2.85;;;;;;;;;;5001143;28;20042;-77
2023/12/13 07:51:25;;;;;;;1.38;1.17;;;;;;;;;;5002328;28;20579;-77
2023/12/13 07:53:52;;;;;;;3.95;3.05;;;;;;;;;;5002892;28;20420;-80
2023/12/13 07:56:21;;;;;;;10.23;4.97;;;;;;;;;;5001838;28;20420;-77
2023/12/13 07:58:55;;;;;;;1.10;1.00;;;;;;;;;;5001952;28;20294;-77
2023/12/13 08:01:26;;;;;;;1.33;1.33;;;;;;;;;;5004809;28;20156;-77
2023/12/13 08:03:56;;;;;;;2.30;2.05;;;;;;;;;;4991834;28;20073;-78
2023/12/13 08:06:23;;;;;;;2.67;2.45;;;;;;;;;;4999509;28;20045;-77
2023/12/13 08:08:51;;;;;;;1.02;0.73;;;;;;;;;;5004602;28;20922;-76
2023/12/13 08:11:19;;;;;;;3.60;1.58;;;;;;;;;;4984190;28;20054;-74
2023/12/13 08:13:46;;;;;;;0.70;0.70;;;;;;;;;;5004127;28;20057;-75
2023/12/13 08:16:14;;;;;;;6.18;2.35;;;;;;;;;;5002740;28;20054;-76
2023/12/13 08:18:42;;;;;;;1.85;1.27;;;;;;;;;;5000472;28;20140;-75
2023/12/13 08:21:10;;;;;;;0.98;0.98;;;;;;;;;;4998880;28;20064;-75
2023/12/13 08:23:37;;;;;;;0.40;0.40;;;;;;;;;;4999403;28;20470;-75
2023/12/13 08:26:05;;;;;;;0.95;0.95;;;;;;;;;;4975520;28;20558;-76
2023/12/13 08:28:32;;;;;;;11.88;3.58;;;;;;;;;;4986250;28;20496;-76
2023/12/13 08:31:00;;;;;;;8.57;5.60;;;;;;;;;;4999881;28;20049;-76
2023/12/13 08:33:44;;;;;;;0.90;0.90;;;;;;;;;;4986562;28;20050;-76
2023/12/13 08:36:12;;;;;;;1.83;1.73;;;;;;;;;;5003560;28;20103;-76
2023/12/13 08:38:40;;;;;;;1.52;1.17;;;;;;;;;;4977072;28;20416;-77
2023/12/13 08:41:14;;;;;;;1.67;0.40;;;;;;;;;;5005250;28;20046;-76
2023/12/13 08:43:42;;;;;;;2.80;2.60;;;;;;;;;;4988877;28;20057;-77
2023/12/13 08:46:20;;;;;;;0.80;0.80;;;;;;;;;;4999465;28;20053;-77
2023/12/13 08:49:04;;;;;;;2.13;1.40;;;;;;;;;;5004259;28;20057;-76
2023/12/13 08:51:33;;;;;;;0.20;0.20;;;;;;;;;;5004951;28;20073;-77
2023/12/13 08:54:01;;;;;;;0.70;0.70;;;;;;;;;;5001347;28;20049;-76
2023/12/13 08:56:28;;;;;;;0.55;0.55;;;;;;;;;;5003451;28;20050;-77
2023/12/13 08:58:56;;;;;;;1.30;1.20;;;;;;;;;;4998180;28;20456;-76
2023/12/13 09:01:24;;;;;;;0.28;0.28;;;;;;;;;;4997243;28;20061;-75
2023/12/13 09:03:55;;;;;;;0.60;0.60;;;;;;;;;;4987462;28;20050;-76
2023/12/13 09:06:22;;;;;;;0.10;0.10;;;;;;;;;;4991865;28;20054;-75
2023/12/13 09:08:50;;;;;;;0.88;0.70;;;;;;;;;;4991869;28;20053;-75
2023/12/13 09:11:18;;;;;;;4.65;2.95;;;;;;;;;;5003311;28;20485;-76
2023/12/13 09:13:45;;;;;;;1.33;1.17;;;;;;;;;;4983101;28;20286;-76
2023/12/13 09:16:13;;;;;;;1.40;1.38;;;;;;;;;;5004042;28;20054;-75
2023/12/13 09:18:44;;;;;;;1.00;1.00;;;;;;;;;;4962899;28;20050;-75
2023/12/13 09:21:12;;;;;;;1.38;1.33;;;;;;;;;;4998867;28;20042;-76
2023/12/13 09:23:40;;;;;;;3.88;3.58;;;;;;;;;;4997383;28;20060;-76
2023/12/13 09:26:13;;;;;;;2.28;2.08;;;;;;;;;;5001217;28;20057;-76
2023/12/13 09:28:41;;;;;;;10.18;4.30;;;;;;;;;;5003044;28;20060;-76
2023/12/13 09:31:08;;;;;;;12.23;6.35;;;;;;;;;;4999144;28;20669;-76
2023/12/13 09:33:36;;;;;;;2.13;2.00;;;;;;;;;;4933723;28;20141;-75
2023/12/13 09:36:04;;;;;;;3.00;2.80;;;;;;;;;;4972248;28;20053;-74
2023/12/13 09:38:32;;;;;;;1.25;0.93;;;;;;;;;;4972716;28;20053;-76
2023/12/13 09:41:00;;;;;;;2.13;2.03;;;;;;;;;;4989813;28;20052;-75
2023/12/13 09:43:28;;;;;;;3.80;2.85;;;;;;;;;;5001870;28;20526;-75
2023/12/13 09:45:56;;;;;;;3.00;1.90;;;;;;;;;;4978182;28;20057;-76
2023/12/13 09:48:24;;;;;;;1.38;1.27;;;;;;;;;;4956325;28;20249;-76
2023/12/13 09:50:54;;;;;;;1.15;1.13;;;;;;;;;;4997524;28;20038;-76
2023/12/13 09:53:21;;;;;;;0.90;0.90;;;;;;;;;;5002175;28;20053;-77
2023/12/13 09:55:49;;;;;;;1.20;1.20;;;;;;;;;;5001622;28;20337;-77
2023/12/13 09:58:18;;;;;;;0.10;0.10;;;;;;;;;;4977643;28;20141;-77
2023/12/13 10:00:45;;;;;;;1.00;0.60;;;;;;;;;;4999943;28;20042;-77
2023/12/13 10:03:13;;;;;;;0.68;0.68;;;;;;;;;;4994883;28;20512;-77
2023/12/13 10:05:42;;;;;;;1.27;1.27;;;;;;;;;;4990519;28;20593;-76
2023/12/13 10:08:11;;;;;;;0.40;0.40;;;;;;;;;;4990467;28;20656;-77
2023/12/13 10:10:39;;;;;;;0.20;0.20;;;;;;;;;;5001165;28;20455;-77
2023/12/13 10:13:09;;;;;;;0.63;0.63;;;;;;;;;;4978129;28;20341;-76
2023/12/13 10:15:37;;;;;;;0.68;0.30;;;;;;;;;;4996612;28;20042;-77
2023/12/13 10:18:05;;;;;;;1.05;1.05;;;;;;;;;;4993839;28;20232;-77
2023/12/13 10:20:33;;;;;;;2.15;2.00;;;;;;;;;;5000703;28;20050;-75
2023/12/13 10:23:05;;;;;;;2.75;2.08;;;;;;;;;;4987753;28;20277;-75
2023/12/13 10:25:33;;;;;;;0.35;0.35;;;;;;;;;;4991729;28;20070;-75
2023/12/13 10:28:03;;;;;;;0.63;0.63;;;;;;;;;;4978298;28;20155;-74
2023/12/13 10:30:32;;;;;;;1.67;1.17;;;;;;;;;;4979209;28;20054;-75
2023/12/13 10:33:00;;;;;;;0.75;0.75;;;;;;;;;;4989335;28;20068;-74
2023/12/13 10:35:28;;;;;;;1.38;0.30;;;;;;;;;;4994704;28;20116;-75
2023/12/13 10:37:58;;;;;;;0.22;0.22;;;;;;;;;;4987511;28;20049;-75
2023/12/13 10:40:26;;;;;;;1.13;0.90;;;;;;;;;;5002561;28;20073;-76
2023/12/13 10:42:54;;;;;;;1.42;1.33;;;;;;;;;;5000986;28;20052;-76
2023/12/13 10:45:24;;;;;;;3.03;2.38;;;;;;;;;;4986855;28;20042;-77
2023/12/13 10:47:55;;;;;;;1.30;1.27;;;;;;;;;;5002168;28;20052;-77
2023/12/13 10:50:23;;;;;;;1.00;1.00;;;;;;;;;;4998427;28;20169;-75
2023/12/13 10:52:52;;;;;;;2.05;1.80;;;;;;;;;;5004397;28;20070;-76
2023/12/13 10:55:20;;;;;;;2.67;2.40;;;;;;;;;;5003766;28;20042;-74
2023/12/13 10:57:48;;;;;;;0.25;0.25;;;;;;;;;;4985760;28;20064;-76
2023/12/13 11:00:16;;;;;;;0.10;0.10;;;;;;;;;;5003153;28;20473;-75
2023/12/13 11:02:52;;;;;;;1.80;1.70;;;;;;;;;;5000032;28;20042;-76
2023/12/13 11:05:20;;;;;;;1.13;1.02;;;;;;;;;;5005319;28;20077;-79
2023/12/13 11:07:48;;;;;;;0.52;0.52;;;;;;;;;;5014082;28;20062;-75
2023/12/13 11:10:16;;;;;;;1.42;1.15;;;;;;;;;;5007487;28;20050;-78
2023/12/13 11:12:54;;;;;;;0.77;0.70;;;;;;;;;;5008871;28;20134;-78
2023/12/13 11:15:23;;;;;;;0.65;0.65;;;;;;;;;;4994347;28;20092;-78
2023/12/13 11:17:54;;;;;;;0.40;0.40;;;;;;;;;;5010180;28;20412;-78
2023/12/13 11:20:22;;;;;;;0.10;0.10;;;;;;;;;;5008742;28;20050;-78
2023/12/13 11:22:50;;;;;;;1.08;0.47;;;;;;;;;;4992421;28;20049;-79
2023/12/13 11:25:18;;;;;;;0.15;0.15;;;;;;;;;;5011255;28;20065;-79
2023/12/13 11:27:53;;;;;;;0.82;0.82;;;;;;;;;;5010987;28;20500;-76
2023/12/13 11:30:21;;;;;;;1.15;1.10;;;;;;;;;;5008939;28;20060;-78
2023/12/13 11:32:51;;;;;;;0.65;0.65;;;;;;;;;;5011513;28;20116;-75
2023/12/13 11:35:20;;;;;;;2.03;1.80;;;;;;;;;;4994475;28;20305;-78
2023/12/13 11:37:52;;;;;;;0.38;0.38;;;;;;;;;;5011565;28;20057;-75
2023/12/13 11:40:21;;;;;;;0.98;0.98;;;;;;;;;;5008814;28;20504;-74
2023/12/13 11:42:50;;;;;;;3.35;1.05;;;;;;;;;;5022192;23;20053;-87
2023/12/13 11:49:00;;;;;;;1.20;1.10;;;;;;;;;;5028288;28;20103;-89
2023/12/13 11:51:40;;;;;;;0.40;0.40;;;;;;;;;;5016853;28;20046;-86
2023/12/13 11:54:22;;;;;;;0.85;0.85;;;;;;;;;;5008105;28;20045;-86
2023/12/13 11:57:07;;;;;;;1.17;1.17;;;;;;;;;;5010657;28;20041;-90
2023/12/13 11:59:50;;;;;;;8.00;2.80;;;;;;;;;;4998958;28;20045;-86
2023/12/13 12:02:20;;;;;;;0.30;0.30;;;;;;;;;;5029998;28;20526;-91
2023/12/13 12:04:56;;;;;;;1.55;1.48;;;;;;;;;;5032153;28;20050;-88
2023/12/13 12:07:27;;;;;;;0.30;0.30;;;;;;;;;;5023421;28;20434;-88
2023/12/13 12:10:07;;;;;;;0.65;0.65;;;;;;;;;;5022870;28;20042;-86
2023/12/13 12:13:02;;;;;;;0.50;0.50;;;;;;;;;;5009741;28;20510;-86
2023/12/13 12:19:09;;;;;;;0.60;0.60;;;;;;;;;;5018814;28;20164;-86
2023/12/13 12:22:24;;;;;;;1.20;1.20;;;;;;;;;;5011236;28;20067;-87
2023/12/13 12:28:32;;;;;;;0.68;0.45;;;;;;;;;;5002633;28;19994;-88
2023/12/13 12:34:01;;;;;;;0.65;0.65;;;;;;;;;;4947320;28;23188;-78
2023/12/13 12:36:31;;;;;;;3.22;0.77;;;;;;;;;;4951165;28;20053;-78
2023/12/13 12:38:58;;;;;;;1.25;1.20;;;;;;;;;;4978435;28;20104;-78
2023/12/13 12:41:28;;;;;;;0.70;0.70;;;;;;;;;;4980048;28;20053;-78
2023/12/13 12:43:56;;;;;;;0.25;0.25;;;;;;;;;;4981647;28;20053;-79
2023/12/13 12:46:24;;;;;;;1.70;1.58;;;;;;;;;;4982084;28;20121;-78
2023/12/13 12:48:55;;;;;;;1.92;1.67;;;;;;;;;;4982434;28;20049;-78
2023/12/13 12:51:24;;;;;;;1.20;1.13;;;;;;;;;;4979561;28;20051;-78
2023/12/13 12:53:52;;;;;;;3.17;1.73;;;;;;;;;;4976197;28;20046;-78
2023/12/13 12:56:20;;;;;;;5.65;2.00;;;;;;;;;;4978905;28;20556;-78
2023/12/13 12:58:49;;;;;;;0.88;0.88;;;;;;;;;;4970420;28;20049;-78
2023/12/13 13:01:17;;;;;;;0.50;0.50;;;;;;;;;;4975989;28;20437;-78
2023/12/13 13:03:44;;;;;;;0.10;0.10;;;;;;;;;;4975586;28;20042;-79
2023/12/13 13:06:12;;;;;;;0.85;0.85;;;;;;;;;;4977027;28;20054;-78
2023/12/13 13:08:39;;;;;;;0.40;0.40;;;;;;;;;;4977082;28;20129;-78
2023/12/13 13:11:07;;;;;;;0.10;0.10;;;;;;;;;;4936354;28;20145;-78
2023/12/13 13:13:38;;;;;;;0.50;0.50;;;;;;;;;;4958974;28;24296;-78
2023/12/13 13:16:07;;;;;;;0.85;0.85;;;;;;;;;;4979737;28;20479;-78
2023/12/13 13:18:35;;;;;;;0.20;0.20;;;;;;;;;;4986158;28;20396;-78
2023/12/13 13:21:03;;;;;;;2.83;2.42;;;;;;;;;;4978117;28;20053;-78
2023/12/13 13:23:31;;;;;;;1.55;1.45;;;;;;;;;;4960094;28;20568;-78
2023/12/13 13:26:03;;;;;;;0.10;0.10;;;;;;;;;;4977210;28;20042;-78
2023/12/13 13:28:31;;;;;;;1.50;1.40;;;;;;;;;;4973377;28;20061;-78
2023/12/13 13:31:01;;;;;;;0.28;0.28;;;;;;;;;;4982179;28;20415;-78
2023/12/13 13:33:29;;;;;;;1.75;1.15;;;;;;;;;;4984780;28;20091;-78
2023/12/13 13:35:57;;;;;;;0.77;0.77;;;;;;;;;;4979924;28;20142;-78
2023/12/13 13:38:25;;;;;;;3.67;2.88;;;;;;;;;;4979129;28;20050;-78
2023/12/13 13:40:52;;;;;;;4.07;3.22;;;;;;;;;;4963605;28;20129;-78
2023/12/13 13:43:20;;;;;;;22.52;3.03;;;;;;;;;;4970141;28;20568;-79
2023/12/13 13:45:48;;;;;;;3.40;2.80;;;;;;;;;;4962139;28;20322;-78
2023/12/13 13:48:18;;;;;;;0.30;0.30;;;;;;;;;;4978168;28;20105;-79
2023/12/13 13:50:45;;;;;;;1.10;0.98;;;;;;;;;;4978815;28;20484;-78
2023/12/13 13:53:13;;;;;;;0.90;0.90;;;;;;;;;;4978673;28;20611;-78
2023/12/13 13:55:40;;;;;;;0.75;0.75;;;;;;;;;;4978201;28;20074;-78
2023/12/13 13:58:08;;;;;;;2.75;1.70;;;;;;;;;;4977184;28;20096;-78
2023/12/13 14:00:35;;;;;;;0.80;0.80;;;;;;;;;;4981367;28;20046;-78
2023/12/13 14:03:03;;;;;;;0.40;0.40;;;;;;;;;;4978547;28;20504;-78
2023/12/13 14:05:35;;;;;;;0.80;0.80;;;;;;;;;;4982384;28;20496;-78
2023/12/13 14:08:03;;;;;;;3.78;3.53;;;;;;;;;;4964100;28;20128;-78
2023/12/13 14:10:30;;;;;;;1.80;1.55;;;;;;;;;;4979285;28;20050;-78
2023/12/13 14:12:58;;;;;;;0.90;0.90;;;;;;;;;;4964792;28;20047;-78
2023/12/13 14:15:26;;;;;;;4.10;1.27;;;;;;;;;;4959285;28;20051;-78
2023/12/13 14:17:53;;;;;;;0.60;0.60;;;;;;;;;;4970895;28;24450;-78
2023/12/13 14:20:22;;;;;;;1.35;1.25;;;;;;;;;;4973582;28;20926;-78
2023/12/13 14:22:49;;;;;;;1.48;1.38;;;;;;;;;;4964673;28;20043;-78
2023/12/13 14:25:17;;;;;;;2.30;1.50;;;;;;;;;;4958339;28;20137;-78
2023/12/13 14:27:46;;;;;;;3.47;3.08;;;;;;;;;;4980143;28;26560;-78
2023/12/13 14:30:13;;;;;;;0.93;0.90;;;;;;;;;;4980935;28;20658;-78
2023/12/13 14:32:43;;;;;;;4.38;3.97;;;;;;;;;;4985285;28;20050;-78
2023/12/13 14:35:11;;;;;;;2.50;1.95;;;;;;;;;;4967563;28;20056;-78
2023/12/13 14:37:42;;;;;;;3.28;2.58;;;;;;;;;;4981944;28;20053;-78
2023/12/13 14:40:19;;;;;;;1.70;1.13;;;;;;;;;;4982152;28;20077;-78
2023/12/13 14:42:47;;;;;;;8.57;5.85;;;;;;;;;;4982960;28;20131;-79
2023/12/13 14:45:15;;;;;;;3.75;2.72;;;;;;;;;;4983489;28;20566;-79
2023/12/13 14:47:42;;;;;;;2.80;2.55;;;;;;;;;;4983709;28;20050;-81
2023/12/13 14:50:11;;;;;;;2.00;1.90;;;;;;;;;;4983723;28;20054;-81
2023/12/13 14:52:40;;;;;;;3.13;2.13;;;;;;;;;;4986233;28;20042;-78
2023/12/13 14:55:08;;;;;;;2.33;2.03;;;;;;;;;;4983887;28;20042;-80
2023/12/13 14:57:36;;;;;;;0.85;0.85;;;;;;;;;;4978888;28;20039;-79
2023/12/13 15:00:10;;;;;;;2.50;2.30;;;;;;;;;;4981597;28;20047;-81
2023/12/13 15:02:40;;;;;;;0.28;0.28;;;;;;;;;;4982317;28;20057;-79
2023/12/13 15:05:08;;;;;;;1.33;1.33;;;;;;;;;;4981790;28;20046;-79